sensor_id;sensor_type;location;lat;lon;timestamp;pressure;altitude;pressure_sealevel;temperature;humidity
36062;BME280;22123;52.412;20.970;2023-05-29T00:00:50;101057.38;;;7.17;100.00
36062;BME280;22123;52.412;20.970;2023-05-29T00:03:15;101033.47;;;6.94;100.00
36062;BME280;22123;52.412;20.970;2023-05-29T00:05:41;101043.81;;;7.09;100.00
36062;BME280;22123;52.412;20.970;2023-05-29T00:08:07;101039.41;;;6.98;100.00
36062;BME280;22123;52.412;20.970;2023-05-29T00:10:33;101040.53;;;6.95;100.00
36062;BME280;22123;52.412;20.970;2023-05-29T00:12:59;101059.59;;;7.12;100.00
36062;BME280;22123;52.412;20.970;2023-05-29T00:15:25;101046.56;;;6.97;100.00
36062;BME280;22123;52.412;20.970;2023-05-29T00:17:51;101028.94;;;6.85;100.00
36062;BME280;22123;52.412;20.970;2023-05-29T00:20:17;101032.44;;;6.86;100.00
36062;BME280;22123;52.412;20.970;2023-05-29T00:22:43;101045.28;;;6.92;100.00
36062;BME280;22123;52.412;20.970;2023-05-29T00:25:09;101037.66;;;6.87;100.00
36062;BME280;22123;52.412;20.970;2023-05-29T00:27:35;101020.03;;;6.75;100.00
36062;BME280;22123;52.412;20.970;2023-05-29T00:30:01;101062.38;;;7.01;100.00
36062;BME280;22123;52.412;20.970;2023-05-29T00:32:27;101034.78;;;6.79;100.00
36062;BME280;22123;52.412;20.970;2023-05-29T00:34:54;101059.25;;;6.95;100.00
36062;BME280;22123;52.412;20.970;2023-05-29T00:37:20;101026.75;;;6.69;100.00
36062;BME280;22123;52.412;20.970;2023-05-29T00:39:46;101045.63;;;6.77;100.00
36062;BME280;22123;52.412;20.970;2023-05-29T00:42:11;101058.88;;;6.79;100.00
36062;BME280;22123;52.412;20.970;2023-05-29T00:44:37;101059.03;;;6.77;100.00
36062;BME280;22123;52.412;20.970;2023-05-29T00:47:03;101049.97;;;6.69;100.00
36062;BME280;22123;52.412;20.970;2023-05-29T00:49:29;101042.75;;;6.59;100.00
36062;BME280;22123;52.412;20.970;2023-05-29T00:51:55;101069.16;;;6.74;100.00
36062;BME280;22123;52.412;20.970;2023-05-29T00:54:26;101068.69;;;6.69;100.00
36062;BME280;22123;52.412;20.970;2023-05-29T00:56:52;101066.69;;;6.61;100.00
36062;BME280;22123;52.412;20.970;2023-05-29T00:59:19;101038.44;;;6.47;100.00
36062;BME280;22123;52.412;20.970;2023-05-29T01:01:46;101038.06;;;6.31;100.00
36062;BME280;22123;52.412;20.970;2023-05-29T01:04:12;101068.31;;;6.52;100.00
36062;BME280;22123;52.412;20.970;2023-05-29T01:06:38;101007.53;;;6.12;100.00
36062;BME280;22123;52.412;20.970;2023-05-29T01:09:05;101070.41;;;6.49;100.00
36062;BME280;22123;52.412;20.970;2023-05-29T01:17:24;101067.69;;;6.39;100.00
36062;BME280;22123;52.412;20.970;2023-05-29T01:25:58;101065.75;;;6.30;100.00
36062;BME280;22123;52.412;20.970;2023-05-29T01:28:27;101036.34;;;6.08;100.00
36062;BME280;22123;52.412;20.970;2023-05-29T01:30:56;101038.28;;;6.06;100.00
36062;BME280;22123;52.412;20.970;2023-05-29T01:33:22;101048.72;;;6.09;100.00
36062;BME280;22123;52.412;20.970;2023-05-29T01:35:48;101005.56;;;5.82;100.00
36062;BME280;22123;52.412;20.970;2023-05-29T01:38:14;101022.66;;;5.90;100.00
36062;BME280;22123;52.412;20.970;2023-05-29T01:40:40;101009.13;;;5.82;100.00
36062;BME280;22123;52.412;20.970;2023-05-29T01:43:07;101019.81;;;5.82;100.00
36062;BME280;22123;52.412;20.970;2023-05-29T01:45:33;101027.06;;;5.80;100.00
36062;BME280;22123;52.412;20.970;2023-05-29T01:48:00;101064.31;;;6.04;100.00
36062;BME280;22123;52.412;20.970;2023-05-29T01:50:26;101011.22;;;5.67;100.00
36062;BME280;22123;52.412;20.970;2023-05-29T01:52:53;101043.72;;;5.84;100.00
36062;BME280;22123;52.412;20.970;2023-05-29T01:55:19;101017.66;;;5.65;100.00
36062;BME280;22123;52.412;20.970;2023-05-29T01:57:45;101026.84;;;5.72;100.00
36062;BME280;22123;52.412;20.970;2023-05-29T02:00:11;101030.97;;;5.76;100.00
36062;BME280;22123;52.412;20.970;2023-05-29T02:02:38;101023.72;;;5.67;100.00
36062;BME280;22123;52.412;20.970;2023-05-29T02:05:05;101046.75;;;5.79;100.00
36062;BME280;22123;52.412;20.970;2023-05-29T02:07:31;101053.53;;;5.83;100.00
36062;BME280;22123;52.412;20.970;2023-05-29T02:09:57;101010.28;;;5.57;100.00
36062;BME280;22123;52.412;20.970;2023-05-29T02:12:23;101008.56;;;5.56;100.00
36062;BME280;22123;52.412;20.970;2023-05-29T02:14:49;101032.13;;;5.62;100.00
36062;BME280;22123;52.412;20.970;2023-05-29T02:17:15;101028.97;;;5.57;100.00
36062;BME280;22123;52.412;20.970;2023-05-29T02:19:40;101013.84;;;5.46;100.00
36062;BME280;22123;52.412;20.970;2023-05-29T02:22:07;101010.44;;;5.44;100.00
36062;BME280;22123;52.412;20.970;2023-05-29T02:24:33;101045.34;;;5.64;100.00
36062;BME280;22123;52.412;20.970;2023-05-29T02:26:58;101039.66;;;5.57;100.00
36062;BME280;22123;52.412;20.970;2023-05-29T02:29:24;101005.72;;;5.36;100.00
36062;BME280;22123;52.412;20.970;2023-05-29T02:31:50;101021.50;;;5.39;100.00
36062;BME280;22123;52.412;20.970;2023-05-29T02:34:16;101044.88;;;5.58;100.00
36062;BME280;22123;52.412;20.970;2023-05-29T02:36:42;101007.44;;;5.37;100.00
36062;BME280;22123;52.412;20.970;2023-05-29T02:39:08;101011.66;;;5.40;100.00
36062;BME280;22123;52.412;20.970;2023-05-29T02:41:34;100989.03;;;5.23;100.00
36062;BME280;22123;52.412;20.970;2023-05-29T02:43:59;101037.25;;;5.54;100.00
36062;BME280;22123;52.412;20.970;2023-05-29T02:46:25;101030.06;;;5.54;100.00
36062;BME280;22123;52.412;20.970;2023-05-29T02:48:51;101016.03;;;5.41;100.00
36062;BME280;22123;52.412;20.970;2023-05-29T02:51:17;100989.59;;;5.27;100.00
36062;BME280;22123;52.412;20.970;2023-05-29T02:53:43;101018.13;;;5.37;100.00
36062;BME280;22123;52.412;20.970;2023-05-29T02:56:09;101016.16;;;5.39;100.00
36062;BME280;22123;52.412;20.970;2023-05-29T02:58:35;101033.88;;;5.52;100.00
36062;BME280;22123;52.412;20.970;2023-05-29T03:01:01;100996.03;;;5.24;100.00
36062;BME280;22123;52.412;20.970;2023-05-29T03:03:26;100990.47;;;5.27;100.00
36062;BME280;22123;52.412;20.970;2023-05-29T03:05:52;100994.44;;;5.33;100.00
36062;BME280;22123;52.412;20.970;2023-05-29T03:08:18;100970.69;;;5.18;100.00
36062;BME280;22123;52.412;20.970;2023-05-29T03:10:44;100988.91;;;5.25;100.00
36062;BME280;22123;52.412;20.970;2023-05-29T03:13:10;100991.19;;;5.29;100.00
36062;BME280;22123;52.412;20.970;2023-05-29T03:15:36;100993.25;;;5.26;100.00
36062;BME280;22123;52.412;20.970;2023-05-29T03:18:02;100984.25;;;5.27;100.00
36062;BME280;22123;52.412;20.970;2023-05-29T03:20:28;100998.34;;;5.29;100.00
36062;BME280;22123;52.412;20.970;2023-05-29T03:22:53;101045.63;;;5.61;100.00
36062;BME280;22123;52.412;20.970;2023-05-29T03:25:20;101030.59;;;5.48;100.00
36062;BME280;22123;52.412;20.970;2023-05-29T03:27:46;101023.28;;;5.50;100.00
36062;BME280;22123;52.412;20.970;2023-05-29T03:30:12;101038.06;;;5.66;100.00
36062;BME280;22123;52.412;20.970;2023-05-29T03:32:38;101038.66;;;5.69;100.00
36062;BME280;22123;52.412;20.970;2023-05-29T03:35:04;101015.38;;;5.60;100.00
36062;BME280;22123;52.412;20.970;2023-05-29T03:37:30;101044.06;;;5.79;100.00
36062;BME280;22123;52.412;20.970;2023-05-29T03:39:56;101034.13;;;5.81;100.00
36062;BME280;22123;52.412;20.970;2023-05-29T03:42:22;101011.97;;;5.69;100.00
36062;BME280;22123;52.412;20.970;2023-05-29T03:44:48;101038.00;;;5.88;100.00
36062;BME280;22123;52.412;20.970;2023-05-29T03:47:13;101028.25;;;5.87;100.00
36062;BME280;22123;52.412;20.970;2023-05-29T03:49:39;101010.91;;;5.82;100.00
36062;BME280;22123;52.412;20.970;2023-05-29T03:52:05;101038.28;;;6.06;100.00
36062;BME280;22123;52.412;20.970;2023-05-29T03:54:32;101046.59;;;6.24;100.00
36062;BME280;22123;52.412;20.970;2023-05-29T03:56:58;101019.09;;;6.13;100.00
36062;BME280;22123;52.412;20.970;2023-05-29T03:59:25;101014.56;;;6.13;100.00
36062;BME280;22123;52.412;20.970;2023-05-29T04:01:51;101057.28;;;6.46;100.00
36062;BME280;22123;52.412;20.970;2023-05-29T04:04:17;101062.97;;;6.52;100.00
36062;BME280;22123;52.412;20.970;2023-05-29T04:06:43;101035.31;;;6.42;100.00
36062;BME280;22123;52.412;20.970;2023-05-29T04:09:08;101054.28;;;6.60;100.00
36062;BME280;22123;52.412;20.970;2023-05-29T04:11:35;101033.41;;;6.54;100.00
36062;BME280;22123;52.412;20.970;2023-05-29T04:14:01;101045.63;;;6.77;100.00
36062;BME280;22123;52.412;20.970;2023-05-29T04:16:27;101036.63;;;6.78;100.00
36062;BME280;22123;52.412;20.970;2023-05-29T04:18:54;101022.41;;;6.78;100.00
36062;BME280;22123;52.412;20.970;2023-05-29T04:21:20;101070.31;;;7.12;100.00
36062;BME280;22123;52.412;20.970;2023-05-29T04:23:46;101059.19;;;7.17;100.00
36062;BME280;22123;52.412;20.970;2023-05-29T04:26:12;101065.88;;;7.32;100.00
36062;BME280;22123;52.412;20.970;2023-05-29T04:28:38;101055.72;;;7.36;100.00
36062;BME280;22123;52.412;20.970;2023-05-29T04:31:04;101068.34;;;7.55;100.00
36062;BME280;22123;52.412;20.970;2023-05-29T04:33:30;101040.53;;;7.46;100.00
36062;BME280;22123;52.412;20.970;2023-05-29T04:35:56;101021.66;;;7.47;100.00
36062;BME280;22123;52.412;20.970;2023-05-29T04:38:22;101008.53;;;7.44;100.00
36062;BME280;22123;52.412;20.970;2023-05-29T04:40:48;101054.56;;;7.89;100.00
36062;BME280;22123;52.412;20.970;2023-05-29T04:43:14;101042.84;;;7.90;100.00
36062;BME280;22123;52.412;20.970;2023-05-29T04:45:40;101023.34;;;7.88;100.00
36062;BME280;22123;52.412;20.970;2023-05-29T04:48:06;101058.50;;;8.14;100.00
36062;BME280;22123;52.412;20.970;2023-05-29T04:50:32;101046.78;;;8.15;100.00
36062;BME280;22123;52.412;20.970;2023-05-29T04:52:57;101039.16;;;8.20;100.00
36062;BME280;22123;52.412;20.970;2023-05-29T04:55:23;101050.00;;;8.38;100.00
36062;BME280;22123;52.412;20.970;2023-05-29T04:57:49;101042.69;;;8.40;100.00
36062;BME280;22123;52.412;20.970;2023-05-29T05:00:15;101048.84;;;8.60;100.00
36062;BME280;22123;52.412;20.970;2023-05-29T05:02:41;101050.38;;;8.73;100.00
36062;BME280;22123;52.412;20.970;2023-05-29T05:05:07;101037.66;;;8.75;100.00
36062;BME280;22123;52.412;20.970;2023-05-29T05:07:33;101031.72;;;8.81;100.00
36062;BME280;22123;52.412;20.970;2023-05-29T05:09:59;101012.22;;;8.79;100.00
36062;BME280;22123;52.412;20.970;2023-05-29T05:12:25;101025.16;;;8.93;100.00
36062;BME280;22123;52.412;20.970;2023-05-29T05:14:51;101016.53;;;8.99;100.00
36062;BME280;22123;52.412;20.970;2023-05-29T05:17:17;101014.66;;;9.10;100.00
36062;BME280;22123;52.412;20.970;2023-05-29T05:19:43;101005.56;;;9.11;100.00
36062;BME280;22123;52.412;20.970;2023-05-29T05:22:08;101006.25;;;9.22;100.00
36062;BME280;22123;52.412;20.970;2023-05-29T05:24:34;101015.25;;;9.31;100.00
36062;BME280;22123;52.412;20.970;2023-05-29T05:27:00;101038.97;;;9.54;100.00
36062;BME280;22123;52.412;20.970;2023-05-29T05:29:26;101000.72;;;9.42;100.00
36062;BME280;22123;52.412;20.970;2023-05-29T05:31:52;101000.38;;;9.55;100.00
36062;BME280;22123;52.412;20.970;2023-05-29T05:34:18;101034.47;;;9.90;100.00
36062;BME280;22123;52.412;20.970;2023-05-29T05:36:44;101036.00;;;9.93;100.00
36062;BME280;22123;52.412;20.970;2023-05-29T05:39:10;101030.00;;;9.99;100.00
36062;BME280;22123;52.412;20.970;2023-05-29T05:41:36;101037.25;;;10.17;100.00
36062;BME280;22123;52.412;20.970;2023-05-29T05:44:01;101033.06;;;10.22;100.00
36062;BME280;22123;52.412;20.970;2023-05-29T05:46:27;101061.56;;;10.51;100.00
36062;BME280;22123;52.412;20.970;2023-05-29T05:48:53;101053.41;;;10.61;100.00
36062;BME280;22123;52.412;20.970;2023-05-29T05:51:19;101033.00;;;10.58;100.00
36062;BME280;22123;52.412;20.970;2023-05-29T05:53:45;101051.81;;;10.76;100.00
36062;BME280;22123;52.412;20.970;2023-05-29T05:56:11;101049.16;;;10.85;100.00
36062;BME280;22123;52.412;20.970;2023-05-29T05:58:37;100944.56;;;10.37;100.00
36062;BME280;22123;52.412;20.970;2023-05-29T06:01:03;101027.38;;;11.04;100.00
36062;BME280;22123;52.412;20.970;2023-05-29T06:03:29;101026.56;;;11.12;100.00
36062;BME280;22123;52.412;20.970;2023-05-29T06:05:54;101018.53;;;11.20;100.00
36062;BME280;22123;52.412;20.970;2023-05-29T06:08:20;101016.03;;;11.27;100.00
36062;BME280;22123;52.412;20.970;2023-05-29T06:10:46;101033.59;;;11.47;100.00
36062;BME280;22123;52.412;20.970;2023-05-29T06:13:12;100955.00;;;11.09;100.00
36062;BME280;22123;52.412;20.970;2023-05-29T06:15:38;101038.34;;;11.70;100.00
36062;BME280;22123;52.412;20.970;2023-05-29T06:18:04;101051.94;;;11.95;100.00
36062;BME280;22123;52.412;20.970;2023-05-29T06:20:30;101047.38;;;12.12;100.00
36062;BME280;22123;52.412;20.970;2023-05-29T06:22:56;101039.66;;;12.25;100.00
36062;BME280;22123;52.412;20.970;2023-05-29T06:25:22;101045.53;;;12.37;100.00
36062;BME280;22123;52.412;20.970;2023-05-29T06:27:47;101000.81;;;12.26;100.00
36062;BME280;22123;52.412;20.970;2023-05-29T06:30:15;100994.06;;;12.30;100.00
36062;BME280;22123;52.412;20.970;2023-05-29T06:32:41;101026.59;;;12.62;100.00
36062;BME280;22123;52.412;20.970;2023-05-29T06:35:07;101010.22;;;12.63;100.00
36062;BME280;22123;52.412;20.970;2023-05-29T06:37:32;101043.22;;;12.98;100.00
36062;BME280;22123;52.412;20.970;2023-05-29T06:39:58;101025.81;;;13.01;100.00
36062;BME280;22123;52.412;20.970;2023-05-29T06:42:24;101010.97;;;12.88;100.00
36062;BME280;22123;52.412;20.970;2023-05-29T06:44:50;100947.25;;;12.63;100.00
36062;BME280;22123;52.412;20.970;2023-05-29T06:47:16;100996.53;;;13.13;100.00
36062;BME280;22123;52.412;20.970;2023-05-29T06:49:42;101015.84;;;13.41;100.00
36062;BME280;22123;52.412;20.970;2023-05-29T06:52:08;101032.00;;;13.57;100.00
36062;BME280;22123;52.412;20.970;2023-05-29T06:54:33;101002.44;;;13.56;100.00
36062;BME280;22123;52.412;20.970;2023-05-29T06:56:59;101005.13;;;13.79;100.00
36062;BME280;22123;52.412;20.970;2023-05-29T06:59:25;101034.22;;;14.23;100.00
36062;BME280;22123;52.412;20.970;2023-05-29T07:01:51;101038.81;;;14.38;100.00
36062;BME280;22123;52.412;20.970;2023-05-29T07:04:17;101030.97;;;14.28;100.00
36062;BME280;22123;52.412;20.970;2023-05-29T07:06:42;101040.47;;;14.47;100.00
36062;BME280;22123;52.412;20.970;2023-05-29T07:09:08;101035.91;;;14.63;100.00
36062;BME280;22123;52.412;20.970;2023-05-29T07:11:34;101003.06;;;14.66;100.00
36062;BME280;22123;52.412;20.970;2023-05-29T07:14:00;101016.50;;;14.89;100.00
36062;BME280;22123;52.412;20.970;2023-05-29T07:16:26;101046.25;;;15.12;100.00
36062;BME280;22123;52.412;20.970;2023-05-29T07:18:51;101023.97;;;15.02;100.00
36062;BME280;22123;52.412;20.970;2023-05-29T07:21:17;101046.03;;;15.28;100.00
36062;BME280;22123;52.412;20.970;2023-05-29T07:23:43;101016.44;;;15.34;100.00
36062;BME280;22123;52.412;20.970;2023-05-29T07:26:09;101014.63;;;15.56;100.00
36062;BME280;22123;52.412;20.970;2023-05-29T07:28:34;101043.44;;;15.93;100.00
36062;BME280;22123;52.412;20.970;2023-05-29T07:31:00;101053.91;;;16.18;100.00
36062;BME280;22123;52.412;20.970;2023-05-29T07:33:26;101050.81;;;16.21;100.00
36062;BME280;22123;52.412;20.970;2023-05-29T07:35:52;101050.44;;;16.52;100.00
36062;BME280;22123;52.412;20.970;2023-05-29T07:38:18;101027.44;;;16.55;100.00
36062;BME280;22123;52.412;20.970;2023-05-29T07:40:43;101054.63;;;16.83;100.00
36062;BME280;22123;52.412;20.970;2023-05-29T07:43:09;101025.34;;;16.79;100.00
36062;BME280;22123;52.412;20.970;2023-05-29T07:45:35;101050.66;;;17.14;100.00
36062;BME280;22123;52.412;20.970;2023-05-29T07:48:01;101043.03;;;17.38;100.00
36062;BME280;22123;52.412;20.970;2023-05-29T07:50:27;101021.94;;;17.60;100.00
36062;BME280;22123;52.412;20.970;2023-05-29T07:52:53;101018.22;;;17.81;100.00
36062;BME280;22123;52.412;20.970;2023-05-29T07:55:19;101027.31;;;18.02;100.00
36062;BME280;22123;52.412;20.970;2023-05-29T07:57:44;101041.13;;;18.40;100.00
36062;BME280;22123;52.412;20.970;2023-05-29T08:00:11;101021.63;;;18.57;100.00
36062;BME280;22123;52.412;20.970;2023-05-29T08:02:37;101029.56;;;18.92;100.00
36062;BME280;22123;52.412;20.970;2023-05-29T08:05:03;101024.88;;;19.13;100.00
36062;BME280;22123;52.412;20.970;2023-05-29T08:07:29;101017.34;;;19.08;100.00
36062;BME280;22123;52.412;20.970;2023-05-29T08:09:55;101047.91;;;19.30;100.00
36062;BME280;22123;52.412;20.970;2023-05-29T08:12:23;101039.34;;;19.65;100.00
36062;BME280;22123;52.412;20.970;2023-05-29T08:14:48;101008.00;;;19.74;100.00
36062;BME280;22123;52.412;20.970;2023-05-29T08:17:14;101018.50;;;20.09;100.00
36062;BME280;22123;52.412;20.970;2023-05-29T08:19:40;101020.78;;;19.87;100.00
36062;BME280;22123;52.412;20.970;2023-05-29T08:22:06;101030.81;;;20.19;100.00
36062;BME280;22123;52.412;20.970;2023-05-29T08:24:32;101019.78;;;20.07;100.00
36062;BME280;22123;52.412;20.970;2023-05-29T08:26:58;101011.69;;;19.93;100.00
36062;BME280;22123;52.412;20.970;2023-05-29T08:29:24;101009.84;;;20.38;100.00
36062;BME280;22123;52.412;20.970;2023-05-29T08:31:50;100996.59;;;20.60;100.00
36062;BME280;22123;52.412;20.970;2023-05-29T08:34:16;101009.44;;;21.03;100.00
36062;BME280;22123;52.412;20.970;2023-05-29T08:36:41;101036.00;;;21.14;100.00
36062;BME280;22123;52.412;20.970;2023-05-29T08:39:07;100991.44;;;21.26;100.00
36062;BME280;22123;52.412;20.970;2023-05-29T08:42:05;101031.28;;;21.59;100.00
36062;BME280;22123;52.412;20.970;2023-05-29T08:44:33;101008.09;;;21.73;100.00
36062;BME280;22123;52.412;20.970;2023-05-29T08:47:02;101001.88;;;22.32;97.41
36062;BME280;22123;52.412;20.970;2023-05-29T08:49:29;101004.06;;;22.77;81.84
36062;BME280;22123;52.412;20.970;2023-05-29T08:52:10;101019.28;;;23.08;66.66
36062;BME280;22123;52.412;20.970;2023-05-29T08:54:39;100991.53;;;22.69;67.07
36062;BME280;22123;52.412;20.970;2023-05-29T08:57:05;101035.44;;;22.57;62.07
36062;BME280;22123;52.412;20.970;2023-05-29T08:59:32;101027.91;;;22.29;68.45
36062;BME280;22123;52.412;20.970;2023-05-29T09:01:58;101018.38;;;21.78;68.64
36062;BME280;22123;52.412;20.970;2023-05-29T09:04:24;101017.81;;;21.57;70.78
36062;BME280;22123;52.412;20.970;2023-05-29T09:06:51;100997.56;;;21.09;67.74
36062;BME280;22123;52.412;20.970;2023-05-29T09:09:17;101006.06;;;20.82;60.80
36062;BME280;22123;52.412;20.970;2023-05-29T09:11:43;101009.16;;;20.67;60.41
36062;BME280;22123;52.412;20.970;2023-05-29T09:14:35;101024.97;;;20.65;65.70
36062;BME280;22123;52.412;20.970;2023-05-29T09:17:03;100999.69;;;20.45;66.66
36062;BME280;22123;52.412;20.970;2023-05-29T09:19:29;101018.50;;;20.60;58.85
36062;BME280;22123;52.412;20.970;2023-05-29T09:22:03;101017.38;;;20.67;61.19
36062;BME280;22123;52.412;20.970;2023-05-29T09:24:30;101017.16;;;20.69;62.56
36062;BME280;22123;52.412;20.970;2023-05-29T09:26:59;100962.47;;;20.19;64.34
36062;BME280;22123;52.412;20.970;2023-05-29T09:29:25;100980.66;;;20.31;66.01
36062;BME280;22123;52.412;20.970;2023-05-29T09:31:51;100975.84;;;20.52;65.47
36062;BME280;22123;52.412;20.970;2023-05-29T09:34:17;101010.72;;;21.19;60.36
36062;BME280;22123;52.412;20.970;2023-05-29T09:36:43;101007.50;;;21.41;55.20
36062;BME280;22123;52.412;20.970;2023-05-29T09:39:09;100959.22;;;21.28;53.63
36062;BME280;22123;52.412;20.970;2023-05-29T09:41:41;101008.69;;;21.75;55.50
36062;BME280;22123;52.412;20.970;2023-05-29T09:44:07;100996.56;;;21.71;60.29
36062;BME280;22123;52.412;20.970;2023-05-29T09:46:36;100995.72;;;21.82;55.30
36062;BME280;22123;52.412;20.970;2023-05-29T09:49:02;101005.63;;;21.83;66.81
36062;BME280;22123;52.412;20.970;2023-05-29T09:51:28;100987.25;;;21.72;63.41
36062;BME280;22123;52.412;20.970;2023-05-29T09:53:54;100999.81;;;21.80;59.85
36062;BME280;22123;52.412;20.970;2023-05-29T09:56:23;101002.63;;;21.73;59.08
36062;BME280;22123;52.412;20.970;2023-05-29T09:58:49;100982.75;;;21.29;56.64
36062;BME280;22123;52.412;20.970;2023-05-29T10:01:15;101003.84;;;20.91;55.29
36062;BME280;22123;52.412;20.970;2023-05-29T10:03:41;100982.66;;;20.87;57.02
36062;BME280;22123;52.412;20.970;2023-05-29T10:06:10;100988.75;;;21.37;57.51
36062;BME280;22123;52.412;20.970;2023-05-29T10:08:37;100969.34;;;21.58;56.05
36062;BME280;22123;52.412;20.970;2023-05-29T10:11:05;100976.25;;;22.14;58.92
36062;BME280;22123;52.412;20.970;2023-05-29T10:13:34;100964.22;;;22.27;54.51
36062;BME280;22123;52.412;20.970;2023-05-29T10:16:03;100994.13;;;23.12;56.50
36062;BME280;22123;52.412;20.970;2023-05-29T10:18:37;100966.94;;;23.56;54.75
36062;BME280;22123;52.412;20.970;2023-05-29T10:21:04;100951.94;;;24.26;49.30
36062;BME280;22123;52.412;20.970;2023-05-29T10:23:33;100948.53;;;24.97;46.27
36062;BME280;22123;52.412;20.970;2023-05-29T10:26:12;100973.63;;;25.78;47.39
36062;BME280;22123;52.412;20.970;2023-05-29T10:28:40;100965.91;;;26.45;45.88
36062;BME280;22123;52.412;20.970;2023-05-29T10:31:16;100941.91;;;27.03;40.69
36062;BME280;22123;52.412;20.970;2023-05-29T10:36:37;100978.88;;;28.12;40.30
36062;BME280;22123;52.412;20.970;2023-05-29T10:39:05;100969.41;;;28.54;40.37
36062;BME280;22123;52.412;20.970;2023-05-29T10:41:31;100983.69;;;29.53;37.98
36062;BME280;22123;52.412;20.970;2023-05-29T10:43:58;100988.09;;;29.59;36.30
36062;BME280;22123;52.412;20.970;2023-05-29T10:49:18;100987.81;;;26.62;37.24
36062;BME280;22123;52.412;20.970;2023-05-29T10:51:44;100992.28;;;25.65;40.31
36062;BME280;22123;52.412;20.970;2023-05-29T10:54:10;100994.94;;;24.89;42.71
36062;BME280;22123;52.412;20.970;2023-05-29T10:56:36;100965.94;;;24.08;44.20
36062;BME280;22123;52.412;20.970;2023-05-29T10:59:02;100971.75;;;23.49;47.28
36062;BME280;22123;52.412;20.970;2023-05-29T11:01:31;100988.03;;;22.98;47.41
36062;BME280;22123;52.412;20.970;2023-05-29T11:06:45;100952.19;;;22.16;49.54
36062;BME280;22123;52.412;20.970;2023-05-29T11:09:31;100977.44;;;22.06;51.71
36062;BME280;22123;52.412;20.970;2023-05-29T11:12:22;100962.22;;;22.58;60.98
36062;BME280;22123;52.412;20.970;2023-05-29T11:15:04;100964.75;;;23.70;49.12
36062;BME280;22123;52.412;20.970;2023-05-29T11:17:42;100973.63;;;24.06;45.83
36062;BME280;22123;52.412;20.970;2023-05-29T11:20:20;100967.38;;;23.65;46.57
36062;BME280;22123;52.412;20.970;2023-05-29T11:23:04;100978.34;;;23.19;48.74
36062;BME280;22123;52.412;20.970;2023-05-29T11:25:33;100958.03;;;22.67;48.32
36062;BME280;22123;52.412;20.970;2023-05-29T11:27:59;100944.56;;;22.54;53.46
36062;BME280;22123;52.412;20.970;2023-05-29T11:30:25;100942.66;;;22.54;51.00
36062;BME280;22123;52.412;20.970;2023-05-29T11:32:52;100912.97;;;22.28;49.04
36062;BME280;22123;52.412;20.970;2023-05-29T11:35:19;100964.13;;;22.46;50.44
36062;BME280;22123;52.412;20.970;2023-05-29T11:37:47;100937.03;;;22.02;51.87
36062;BME280;22123;52.412;20.970;2023-05-29T11:40:13;100967.75;;;21.92;51.75
36062;BME280;22123;52.412;20.970;2023-05-29T11:42:44;100959.25;;;21.70;52.14
36062;BME280;22123;52.412;20.970;2023-05-29T11:45:18;100958.94;;;21.48;53.75
36062;BME280;22123;52.412;20.970;2023-05-29T11:50:27;100961.28;;;21.44;49.36
36062;BME280;22123;52.412;20.970;2023-05-29T11:52:55;100918.97;;;21.28;50.88
36062;BME280;22123;52.412;20.970;2023-05-29T11:55:23;100940.81;;;21.47;52.72
36062;BME280;22123;52.412;20.970;2023-05-29T11:57:49;100952.38;;;21.49;50.01
36062;BME280;22123;52.412;20.970;2023-05-29T12:00:17;100947.91;;;21.54;52.31
36062;BME280;22123;52.412;20.970;2023-05-29T12:02:43;100929.38;;;21.68;52.18
36062;BME280;22123;52.412;20.970;2023-05-29T12:05:09;100929.63;;;21.91;52.88
36062;BME280;22123;52.412;20.970;2023-05-29T12:07:36;100895.69;;;21.80;52.11
36062;BME280;22123;52.412;20.970;2023-05-29T12:10:12;100951.22;;;22.22;50.35
36062;BME280;22123;52.412;20.970;2023-05-29T12:12:38;100941.22;;;22.28;49.87
36062;BME280;22123;52.412;20.970;2023-05-29T12:15:04;100921.16;;;22.04;49.71
36062;BME280;22123;52.412;20.970;2023-05-29T12:17:31;100908.66;;;22.08;49.48
36062;BME280;22123;52.412;20.970;2023-05-29T12:19:57;100905.81;;;22.03;50.21
36062;BME280;22123;52.412;20.970;2023-05-29T12:22:33;100938.97;;;22.49;52.35
36062;BME280;22123;52.412;20.970;2023-05-29T12:25:05;100918.78;;;22.55;49.95
36062;BME280;22123;52.412;20.970;2023-05-29T12:27:32;100912.84;;;22.58;49.29
36062;BME280;22123;52.412;20.970;2023-05-29T12:30:01;100927.38;;;22.58;48.90
36062;BME280;22123;52.412;20.970;2023-05-29T12:32:39;100939.06;;;22.66;48.94
36062;BME280;22123;52.412;20.970;2023-05-29T12:35:27;100938.34;;;22.58;47.78
36062;BME280;22123;52.412;20.970;2023-05-29T12:37:57;100891.59;;;22.30;44.92
36062;BME280;22123;52.412;20.970;2023-05-29T12:40:27;100931.81;;;22.60;46.17
36062;BME280;22123;52.412;20.970;2023-05-29T12:42:55;100908.66;;;22.32;47.83
36062;BME280;22123;52.412;20.970;2023-05-29T12:45:24;100927.50;;;22.28;47.95
36062;BME280;22123;52.412;20.970;2023-05-29T12:47:55;100904.13;;;22.02;46.08
36062;BME280;22123;52.412;20.970;2023-05-29T12:50:28;100920.94;;;21.94;49.83
36062;BME280;22123;52.412;20.970;2023-05-29T12:53:01;100925.44;;;21.88;49.48
36062;BME280;22123;52.412;20.970;2023-05-29T12:55:29;100925.53;;;21.69;49.63
36062;BME280;22123;52.412;20.970;2023-05-29T12:57:56;100911.28;;;21.49;49.57
36062;BME280;22123;52.412;20.970;2023-05-29T13:00:22;100890.13;;;21.26;50.00